createdAt,value
2018-11-03T00:01:12.448Z,2.80
2018-11-03T00:03:41.396Z,2.70
2018-11-03T00:06:10.648Z,2.90
2018-11-03T00:08:39.533Z,3.10
2018-11-03T00:11:08.353Z,2.90
2018-11-03T00:13:37.171Z,2.73
2018-11-03T00:16:06.396Z,2.47
2018-11-03T00:18:35.170Z,2.23
2018-11-03T00:21:03.951Z,2.10
2018-11-03T00:23:32.706Z,2.13
2018-11-03T00:26:01.534Z,2.17
2018-11-03T00:28:30.596Z,2.13
2018-11-03T00:30:59.648Z,2.10
2018-11-03T00:33:28.660Z,1.63
2018-11-03T00:35:57.782Z,2.20
2018-11-03T00:38:26.624Z,1.90
2018-11-03T00:40:55.587Z,1.97
2018-11-03T00:43:24.517Z,1.60
2018-11-03T00:45:53.255Z,1.80
2018-11-03T00:48:22.172Z,1.50
2018-11-03T00:50:51.542Z,1.77
2018-11-03T00:53:20.513Z,2.20
2018-11-03T00:55:49.302Z,2.13
2018-11-03T00:58:18.368Z,2.10
2018-11-03T01:00:47.709Z,2.03
2018-11-03T01:03:16.556Z,2.07
2018-11-03T01:05:45.632Z,1.97
2018-11-03T01:08:14.432Z,2.10
2018-11-03T01:10:43.642Z,1.83
2018-11-03T01:13:12.453Z,1.80
2018-11-03T01:15:41.488Z,1.87
2018-11-03T01:18:10.206Z,1.83
2018-11-03T01:20:38.935Z,1.60
2018-11-03T01:23:08.931Z,1.60
2018-11-03T01:25:39.158Z,1.60
2018-11-03T01:28:08.771Z,1.43
2018-11-03T01:30:37.593Z,1.60
2018-11-03T01:33:07.659Z,1.60
2018-11-03T01:35:36.707Z,1.77
2018-11-03T01:38:06.127Z,1.70
2018-11-03T01:40:34.984Z,2.10
2018-11-03T01:43:04.127Z,1.90
2018-11-03T01:45:33.140Z,2.10
2018-11-03T01:48:02.093Z,1.80
2018-11-03T01:50:31.913Z,1.60
2018-11-03T01:53:00.936Z,1.40
2018-11-03T01:55:30.182Z,1.27
2018-11-03T01:57:59.309Z,1.10
2018-11-03T02:00:29.748Z,1.10
2018-11-03T02:02:58.821Z,1.20
2018-11-03T02:05:28.015Z,1.10
2018-11-03T02:07:57.035Z,1.10
2018-11-03T02:10:25.928Z,1.20
2018-11-03T02:12:54.988Z,1.10
2018-11-03T02:15:24.069Z,0.83
2018-11-03T02:17:52.952Z,1.00
2018-11-03T02:20:22.574Z,0.97
2018-11-03T02:22:51.611Z,0.70
2018-11-03T02:25:20.600Z,0.90
2018-11-03T02:27:49.544Z,0.70
2018-11-03T02:30:18.856Z,0.60
2018-11-03T02:32:47.788Z,0.60
2018-11-03T02:35:16.575Z,0.53
2018-11-03T02:37:45.712Z,0.50
2018-11-03T02:40:14.505Z,0.50
2018-11-03T02:42:43.786Z,0.40
2018-11-03T02:45:12.982Z,0.40
2018-11-03T02:47:42.362Z,0.30
2018-11-03T02:50:13.631Z,0.30
2018-11-03T02:52:42.836Z,0.30
2018-11-03T02:55:11.778Z,0.20
2018-11-03T02:57:40.438Z,0.20
2018-11-03T03:00:10.796Z,0.20
2018-11-03T03:02:39.833Z,0.20
2018-11-03T03:05:09.835Z,0.20
2018-11-03T03:07:39.005Z,0.10
2018-11-03T03:10:09.514Z,0.10
2018-11-03T03:12:38.596Z,0.17
2018-11-03T03:15:09.205Z,0.10
2018-11-03T03:17:38.055Z,0.10
2018-11-03T03:20:08.413Z,0.10
2018-11-03T03:22:37.524Z,0.00
2018-11-03T03:25:07.391Z,0.20
2018-11-03T03:27:36.484Z,0.10
2018-11-03T03:30:05.644Z,0.00
2018-11-03T03:32:34.725Z,0.00
2018-11-03T03:35:03.819Z,0.00
2018-11-03T03:37:33.044Z,0.10
2018-11-03T03:40:02.333Z,0.10
2018-11-03T03:42:31.483Z,0.10
2018-11-03T03:45:00.534Z,0.10
2018-11-03T03:47:29.730Z,0.03
2018-11-03T03:49:58.712Z,0.00
2018-11-03T03:52:27.474Z,0.10
2018-11-03T03:54:56.604Z,0.00
2018-11-03T03:57:25.470Z,0.10
2018-11-03T03:59:54.587Z,0.10
2018-11-03T04:02:23.721Z,0.10
2018-11-03T04:04:52.986Z,0.10
2018-11-03T04:07:21.966Z,0.00
2018-11-03T04:09:51.027Z,0.13
2018-11-03T04:12:19.865Z,0.93
2018-11-03T04:14:48.900Z,0.10
2018-11-03T04:17:17.759Z,0.20
2018-11-03T04:19:47.246Z,0.20
2018-11-03T04:22:16.328Z,0.00
2018-11-03T04:24:45.558Z,0.00
2018-11-03T04:27:14.593Z,0.00
2018-11-03T04:29:43.789Z,0.00
2018-11-03T04:32:12.507Z,0.07
2018-11-03T04:34:41.258Z,0.10
2018-11-03T04:37:10.276Z,0.10
2018-11-03T04:39:39.299Z,0.10
2018-11-03T04:42:08.152Z,0.00
2018-11-03T04:44:36.993Z,0.07
2018-11-03T04:47:05.836Z,0.00
2018-11-03T04:49:34.617Z,0.00
2018-11-03T04:52:03.673Z,0.10
2018-11-03T04:54:32.872Z,0.00
2018-11-03T04:57:02.651Z,0.00
2018-11-03T04:59:31.533Z,0.10
2018-11-03T05:02:00.449Z,0.10
2018-11-03T05:04:29.530Z,0.00
2018-11-03T05:06:58.576Z,0.00
2018-11-03T05:09:27.634Z,0.00
2018-11-03T05:11:57.019Z,0.00
2018-11-03T05:14:25.933Z,0.07
2018-11-03T05:16:55.320Z,0.00
2018-11-03T05:19:24.316Z,0.07
2018-11-03T05:21:59.748Z,0.00
2018-11-03T05:24:28.909Z,0.10
2018-11-03T05:26:57.799Z,0.00
2018-11-03T05:29:26.570Z,0.00
2018-11-03T05:31:55.489Z,0.00
2018-11-03T05:34:24.669Z,0.00
2018-11-03T05:36:53.748Z,0.00
2018-11-03T05:39:22.707Z,0.00
2018-11-03T05:41:51.840Z,0.00
2018-11-03T05:44:20.620Z,0.00
2018-11-03T05:46:49.855Z,0.10
2018-11-03T05:49:18.653Z,0.10
2018-11-03T05:51:47.528Z,0.00
2018-11-03T05:54:16.548Z,0.00
2018-11-03T05:56:45.282Z,0.00
2018-11-03T05:59:14.091Z,0.03
2018-11-03T06:01:43.112Z,0.00
2018-11-03T06:04:12.108Z,0.00
2018-11-03T06:06:41.096Z,0.00
2018-11-03T06:09:10.862Z,0.00
2018-11-03T06:11:40.138Z,0.00
2018-11-03T06:14:09.227Z,0.00
2018-11-03T06:16:38.504Z,0.00
2018-11-03T06:19:07.239Z,0.00
2018-11-03T06:21:36.354Z,0.10
2018-11-03T06:24:05.636Z,0.10
2018-11-03T06:26:34.772Z,0.00
2018-11-03T06:29:03.887Z,0.00
2018-11-03T06:31:33.055Z,0.00
2018-11-03T06:34:02.069Z,0.10
2018-11-03T06:36:31.185Z,0.13
2018-11-03T06:39:00.109Z,0.00
2018-11-03T06:41:29.202Z,0.00
2018-11-03T06:43:58.657Z,0.10
2018-11-03T06:46:27.915Z,0.00
2018-11-03T06:49:28.501Z,0.20
2018-11-03T06:51:57.886Z,0.03
2018-11-03T06:54:26.983Z,0.00
2018-11-03T06:56:56.255Z,0.00
2018-11-03T06:59:25.264Z,0.00
2018-11-03T07:01:54.371Z,0.00
2018-11-03T07:04:23.621Z,0.00
2018-11-03T07:06:52.672Z,0.00
2018-11-03T07:09:21.822Z,0.03
2018-11-03T07:11:50.672Z,0.10
2018-11-03T07:14:19.692Z,0.10
2018-11-03T07:16:48.773Z,0.00
2018-11-03T07:19:17.958Z,0.10
2018-11-03T07:21:47.272Z,0.03
2018-11-03T07:24:15.930Z,0.10
2018-11-03T07:26:44.727Z,0.00
2018-11-03T07:29:13.507Z,0.10
2018-11-03T07:31:42.315Z,0.10
2018-11-03T07:34:11.053Z,0.10
2018-11-03T07:36:39.927Z,0.10
2018-11-03T07:39:09.595Z,0.10
2018-11-03T07:41:38.434Z,0.10
2018-11-03T07:44:08.133Z,0.20
2018-11-03T07:46:37.083Z,0.20
2018-11-03T07:49:06.474Z,0.10
2018-11-03T07:51:35.118Z,0.10
2018-11-03T07:54:04.100Z,0.20
2018-11-03T07:56:32.839Z,0.00
2018-11-03T07:59:01.620Z,0.10
2018-11-03T08:01:30.526Z,0.10
2018-11-03T08:03:59.294Z,0.40
2018-11-03T08:06:28.027Z,0.43
2018-11-03T08:08:57.369Z,0.60
2018-11-03T08:11:26.054Z,0.70
2018-11-03T08:13:54.907Z,0.60
2018-11-03T08:16:23.687Z,0.43
2018-11-03T08:18:52.628Z,0.40
2018-11-03T08:21:21.551Z,0.50
2018-11-03T08:23:50.788Z,0.40
2018-11-03T08:26:20.158Z,0.30
2018-11-03T08:28:48.861Z,0.20
2018-11-03T08:31:17.658Z,0.20
2018-11-03T08:33:46.455Z,0.20
2018-11-03T08:36:15.607Z,0.30
2018-11-03T08:38:44.918Z,0.30
2018-11-03T08:41:13.797Z,0.10
2018-11-03T08:43:42.688Z,0.20
2018-11-03T08:46:11.536Z,0.20
2018-11-03T08:48:40.763Z,0.20
2018-11-03T08:51:09.595Z,0.10
2018-11-03T08:53:38.651Z,0.10
2018-11-03T08:56:07.808Z,0.13
2018-11-03T08:58:37.193Z,0.30
2018-11-03T09:01:06.344Z,0.20
2018-11-03T09:03:35.185Z,0.10
2018-11-03T09:06:04.310Z,0.30
2018-11-03T09:08:33.645Z,0.30
2018-11-03T09:11:02.745Z,0.10
2018-11-03T09:13:32.077Z,0.20
2018-11-03T09:16:01.081Z,0.30
2018-11-03T09:18:30.344Z,0.20
2018-11-03T09:20:59.545Z,0.40
2018-11-03T09:23:28.410Z,0.13
2018-11-03T09:25:57.299Z,0.30
2018-11-03T09:28:26.742Z,0.30
2018-11-03T09:30:55.656Z,0.10
2018-11-03T09:33:24.307Z,0.40
2018-11-03T09:35:53.649Z,0.20
2018-11-03T09:38:22.688Z,0.10
2018-11-03T09:40:51.542Z,0.40
2018-11-03T09:43:20.868Z,0.20
2018-11-03T09:45:49.552Z,0.23
2018-11-03T09:48:18.303Z,0.10
2018-11-03T09:50:47.277Z,0.20
2018-11-03T09:53:16.045Z,0.30
2018-11-03T09:55:45.319Z,0.40
2018-11-03T09:58:14.155Z,0.40
2018-11-03T10:00:43.006Z,0.30
2018-11-03T10:03:12.198Z,0.23
2018-11-03T10:05:41.401Z,0.20
2018-11-03T10:08:10.216Z,0.03
2018-11-03T10:10:39.087Z,0.20
2018-11-03T10:13:08.156Z,0.10
2018-11-03T10:15:37.008Z,0.17
2018-11-03T10:18:06.299Z,0.27
2018-11-03T10:20:35.368Z,0.30
2018-11-03T10:23:04.765Z,0.40
2018-11-03T10:25:33.368Z,0.20
2018-11-03T10:28:02.811Z,0.13
2018-11-03T10:30:31.843Z,0.20
2018-11-03T10:33:00.902Z,0.20
2018-11-03T10:35:29.866Z,0.20
2018-11-03T10:37:59.973Z,0.43
2018-11-03T10:40:29.244Z,0.50
2018-11-03T10:42:58.274Z,0.27
2018-11-03T10:45:27.079Z,0.30
2018-11-03T10:47:55.823Z,0.27
2018-11-03T10:50:24.606Z,0.10
2018-11-03T10:52:53.483Z,0.17
2018-11-03T10:55:22.185Z,0.20
2018-11-03T10:57:51.183Z,0.20
2018-11-03T11:00:25.935Z,0.30
2018-11-03T11:03:00.255Z,0.27
2018-11-03T11:05:34.920Z,0.33
2018-11-03T11:08:09.201Z,0.23
2018-11-03T11:10:43.614Z,0.40
2018-11-03T11:13:21.238Z,0.20
2018-11-03T11:15:53.674Z,0.40
2018-11-03T11:18:22.437Z,0.17
2018-11-03T11:20:51.246Z,0.10
2018-11-03T11:23:20.110Z,0.30
2018-11-03T11:25:48.869Z,0.30
2018-11-03T11:28:17.750Z,0.57
2018-11-03T11:30:46.647Z,0.37
2018-11-03T11:33:16.533Z,0.20
2018-11-03T11:35:45.469Z,0.20
2018-11-03T11:38:14.853Z,0.30
2018-11-03T11:40:44.117Z,0.30
2018-11-03T11:43:13.953Z,0.23
2018-11-03T11:45:43.205Z,0.30
2018-11-03T11:48:11.991Z,0.20
2018-11-03T11:50:40.826Z,0.30
2018-11-03T11:53:09.642Z,0.23
2018-11-03T11:55:38.455Z,0.17
2018-11-03T11:58:07.844Z,0.20
2018-11-03T12:00:36.731Z,0.40
2018-11-03T12:03:05.832Z,0.20
2018-11-03T12:05:34.732Z,0.30
2018-11-03T12:08:03.971Z,0.50
2018-11-03T12:10:33.034Z,0.30
2018-11-03T12:13:02.104Z,0.23
2018-11-03T12:15:31.400Z,0.30
2018-11-03T12:18:00.889Z,0.33
2018-11-03T12:20:29.761Z,0.30
2018-11-03T12:22:59.002Z,0.60
2018-11-03T12:25:28.148Z,0.40
2018-11-03T12:27:57.238Z,0.50
2018-11-03T12:30:26.252Z,0.53
2018-11-03T12:32:55.205Z,0.83
2018-11-03T12:35:24.261Z,0.90
2018-11-03T12:37:53.774Z,1.07
2018-11-03T12:40:22.767Z,0.50
2018-11-03T12:42:51.931Z,1.17
2018-11-03T12:45:20.958Z,0.77
2018-11-03T12:47:50.385Z,0.30
2018-11-03T12:50:19.401Z,0.43
2018-11-03T12:52:48.309Z,0.40
2018-11-03T12:55:17.492Z,0.40
2018-11-03T12:57:46.599Z,0.23
2018-11-03T13:00:16.411Z,0.37
2018-11-03T13:02:46.470Z,0.50
2018-11-03T13:05:15.752Z,0.50
2018-11-03T13:07:45.604Z,0.40
2018-11-03T13:10:14.932Z,0.40
2018-11-03T13:12:44.284Z,0.40
2018-11-03T13:15:14.454Z,0.60
2018-11-03T13:17:43.550Z,0.40
2018-11-03T13:20:13.695Z,0.30
2018-11-03T13:22:43.444Z,0.80
2018-11-03T13:25:12.896Z,0.77
2018-11-03T13:27:43.444Z,0.20
2018-11-03T13:30:14.174Z,0.30
2018-11-03T13:32:43.129Z,0.30
2018-11-03T13:35:13.286Z,0.33
2018-11-03T13:37:42.299Z,0.80
2018-11-03T13:40:12.761Z,0.50
2018-11-03T13:42:42.239Z,0.50
2018-11-03T13:45:11.594Z,0.40
2018-11-03T13:47:40.876Z,0.50
2018-11-03T13:50:16.117Z,0.30
2018-11-03T13:52:46.784Z,0.30
2018-11-03T13:55:15.885Z,0.50
2018-11-03T13:57:45.927Z,0.50
2018-11-03T14:00:17.518Z,0.40
2018-11-03T14:02:48.198Z,0.30
2018-11-03T14:05:17.339Z,0.40
2018-11-03T14:07:46.475Z,0.40
2018-11-03T14:10:16.579Z,0.40
2018-11-03T14:12:46.370Z,0.50
2018-11-03T14:15:16.695Z,0.27
2018-11-03T14:17:45.718Z,0.97
2018-11-03T14:20:15.771Z,0.20
2018-11-03T14:22:45.694Z,0.60
2018-11-03T14:25:16.535Z,0.40
2018-11-03T14:27:47.040Z,0.30
2018-11-03T14:30:16.730Z,0.33
2018-11-03T14:32:45.866Z,0.30
2018-11-03T14:35:15.967Z,0.57
2018-11-03T14:37:45.070Z,0.57
2018-11-03T14:40:15.892Z,0.50
2018-11-03T14:42:45.989Z,0.50
2018-11-03T14:45:16.038Z,0.60
2018-11-03T14:47:44.909Z,0.30
2018-11-03T14:50:14.047Z,0.37
2018-11-03T14:52:43.915Z,0.30
2018-11-03T14:55:14.791Z,0.40
2018-11-03T14:57:44.445Z,0.40
2018-11-03T15:00:17.007Z,0.60
2018-11-03T15:02:46.061Z,0.40
2018-11-03T15:05:15.886Z,0.83
2018-11-03T15:07:45.348Z,0.50
2018-11-03T15:10:15.418Z,0.50
2018-11-03T15:12:46.267Z,0.60
2018-11-03T15:15:16.958Z,0.30
2018-11-03T15:17:46.214Z,0.60
2018-11-03T15:20:16.268Z,0.60
2018-11-03T15:22:45.724Z,0.70
2018-11-03T15:25:15.609Z,0.30
2018-11-03T15:27:47.310Z,0.50
2018-11-03T15:30:16.632Z,0.90
2018-11-03T15:32:46.077Z,0.40
2018-11-03T15:35:15.220Z,0.63
2018-11-03T15:37:45.314Z,0.60
2018-11-03T15:40:15.959Z,0.50
2018-11-03T15:42:45.776Z,0.57
2018-11-03T15:45:17.124Z,0.90
2018-11-03T15:47:47.374Z,0.40
2018-11-03T15:50:17.654Z,0.50
2018-11-03T15:52:47.970Z,0.20
2018-11-03T15:55:17.594Z,0.80
2018-11-03T15:57:47.928Z,0.50
2018-11-03T16:00:19.894Z,0.30
2018-11-03T16:02:49.641Z,0.50
2018-11-03T16:05:18.597Z,0.60
2018-11-03T16:07:48.259Z,1.13
2018-11-03T16:10:17.090Z,0.90
2018-11-03T16:12:46.698Z,0.63
2018-11-03T16:15:15.715Z,0.57
2018-11-03T16:17:45.301Z,0.50
2018-11-03T16:20:14.527Z,0.60
2018-11-03T16:22:44.707Z,0.63
2018-11-03T16:25:13.833Z,0.50
2018-11-03T16:27:43.059Z,0.30
2018-11-03T16:30:15.004Z,1.07
2018-11-03T16:32:44.602Z,0.70
2018-11-03T16:35:13.096Z,0.73
2018-11-03T16:37:42.812Z,0.73
2018-11-03T16:40:14.448Z,0.53
2018-11-03T16:42:44.146Z,1.80
2018-11-03T16:45:14.818Z,0.50
2018-11-03T16:47:44.381Z,0.50
2018-11-03T16:50:14.580Z,0.60
2018-11-03T16:55:27.135Z,0.87
2018-11-03T16:57:56.424Z,0.77
2018-11-03T17:00:25.753Z,1.10
2018-11-03T17:02:58.905Z,1.10
2018-11-03T17:05:35.671Z,0.80
2018-11-03T17:08:05.983Z,0.40
2018-11-03T17:10:35.889Z,0.53
2018-11-03T17:13:05.557Z,0.47
2018-11-03T17:15:35.051Z,0.53
2018-11-03T17:18:04.442Z,0.53
2018-11-03T17:20:33.651Z,0.50
2018-11-03T17:23:02.993Z,1.17
2018-11-03T17:25:31.972Z,0.50
2018-11-03T17:28:01.140Z,0.53
2018-11-03T17:30:30.638Z,0.40
2018-11-03T17:32:59.965Z,0.47
2018-11-03T17:35:28.722Z,0.40
2018-11-03T17:37:57.684Z,0.37
2018-11-03T17:40:28.831Z,0.40
2018-11-03T17:42:57.938Z,0.70
2018-11-03T17:45:27.490Z,0.60
2018-11-03T17:47:57.139Z,0.50
2018-11-03T17:50:26.137Z,0.47
2018-11-03T17:52:55.309Z,0.57
2018-11-03T17:55:24.617Z,0.60
2018-11-03T17:57:53.869Z,0.40
2018-11-03T18:00:25.335Z,0.80
2018-11-03T18:02:56.413Z,0.77
2018-11-03T18:05:25.557Z,0.67
2018-11-03T18:07:54.647Z,0.80
2018-11-03T18:10:23.956Z,0.70
2018-11-03T18:12:53.047Z,0.70
2018-11-03T18:15:22.093Z,0.40
2018-11-03T18:17:51.287Z,0.57
2018-11-03T18:20:20.860Z,0.43
2018-11-03T18:22:50.013Z,0.90
2018-11-03T18:25:18.969Z,1.03
2018-11-03T18:27:48.127Z,0.77
2018-11-03T18:30:16.989Z,0.60
2018-11-03T18:32:46.072Z,0.47
2018-11-03T18:35:14.999Z,0.60
2018-11-03T18:37:44.576Z,0.53
2018-11-03T18:40:13.596Z,0.50
2018-11-03T18:42:42.885Z,0.60
2018-11-03T18:45:12.198Z,0.50
2018-11-03T18:47:41.408Z,0.50
2018-11-03T18:50:12.817Z,0.47
2018-11-03T18:52:42.426Z,0.57
2018-11-03T18:55:12.428Z,0.80
2018-11-03T18:57:47.987Z,0.70
2018-11-03T19:00:17.493Z,0.70
2018-11-03T19:02:46.602Z,0.67
2018-11-03T19:05:16.177Z,0.77
2018-11-03T19:07:45.073Z,0.40
2018-11-03T19:10:14.294Z,0.67
2018-11-03T19:12:43.734Z,0.70
2018-11-03T19:15:13.052Z,0.80
2018-11-03T19:17:42.611Z,0.60
2018-11-03T19:20:14.100Z,0.60
2018-11-03T19:22:43.114Z,0.80
2018-11-03T19:25:13.295Z,0.70
2018-11-03T19:27:42.518Z,0.80
2018-11-03T19:30:12.761Z,0.70
2018-11-03T19:32:43.963Z,0.57
2018-11-03T19:35:12.889Z,0.80
2018-11-03T19:37:43.110Z,1.10
2018-11-03T19:40:13.277Z,0.70
2018-11-03T19:42:42.808Z,1.00
2018-11-03T19:45:12.552Z,1.00
2018-11-03T19:47:41.543Z,1.00
2018-11-03T19:50:11.359Z,0.87
2018-11-03T19:52:40.924Z,0.63
2018-11-03T19:55:10.052Z,0.83
2018-11-03T19:57:39.591Z,0.60
2018-11-03T20:00:12.728Z,0.73
2018-11-03T20:02:41.942Z,0.60
2018-11-03T20:05:11.625Z,0.70
2018-11-03T20:07:41.606Z,0.63
2018-11-03T20:10:11.049Z,0.80
2018-11-03T20:12:40.741Z,0.50
2018-11-03T20:15:11.287Z,0.80
2018-11-03T20:17:40.565Z,0.80
2018-11-03T20:20:11.494Z,1.00
2018-11-03T20:22:41.101Z,0.77
2018-11-03T20:25:11.681Z,0.80
2018-11-03T20:27:40.897Z,0.77
2018-11-03T20:30:14.794Z,0.70
2018-11-03T20:32:44.666Z,0.80
2018-11-03T20:35:13.782Z,0.80
2018-11-03T20:37:43.400Z,0.87
2018-11-03T20:40:13.490Z,0.93
2018-11-03T20:42:43.113Z,0.90
2018-11-03T20:45:12.337Z,0.80
2018-11-03T20:47:41.802Z,0.80
2018-11-03T20:50:13.010Z,1.63
2018-11-03T20:52:42.516Z,1.00
2018-11-03T20:55:12.503Z,1.10
2018-11-03T20:57:42.018Z,0.70
2018-11-03T21:00:13.256Z,1.07
2018-11-03T21:02:42.371Z,0.80
2018-11-03T21:05:11.874Z,1.27
2018-11-03T21:07:42.293Z,1.30
2018-11-03T21:10:11.451Z,1.80
2018-11-03T21:12:40.807Z,1.80
2018-11-03T21:15:09.832Z,1.70
2018-11-03T21:17:39.039Z,1.57
2018-11-03T21:20:08.478Z,1.77
2018-11-03T21:22:37.347Z,1.77
2018-11-03T21:25:06.327Z,2.30
2018-11-03T21:27:35.015Z,2.13
2018-11-03T21:30:03.923Z,2.27
2018-11-03T21:32:32.770Z,2.73
2018-11-03T21:35:01.541Z,1.90
2018-11-03T21:37:30.396Z,1.83
2018-11-03T21:39:59.584Z,1.73
2018-11-03T21:42:28.456Z,1.80
2018-11-03T21:44:57.658Z,1.47
2018-11-03T21:47:26.534Z,1.00
2018-11-03T21:49:55.399Z,0.80
2018-11-03T21:52:25.110Z,1.90
2018-11-03T21:54:54.192Z,1.90
2018-11-03T21:57:23.219Z,1.60
2018-11-03T21:59:52.072Z,1.70
2018-11-03T22:02:20.848Z,2.73
2018-11-03T22:04:49.906Z,3.33
2018-11-03T22:07:19.170Z,4.43
2018-11-03T22:09:47.909Z,4.20
2018-11-03T22:12:16.712Z,4.43
2018-11-03T22:14:45.415Z,4.47
2018-11-03T22:17:14.124Z,4.80
2018-11-03T22:19:42.821Z,4.10
2018-11-03T22:22:11.499Z,3.20
2018-11-03T22:24:40.384Z,2.60
2018-11-03T22:27:09.510Z,2.00
2018-11-03T22:29:38.272Z,2.60
2018-11-03T22:32:07.045Z,2.83
2018-11-03T22:34:35.760Z,3.00
2018-11-03T22:37:04.697Z,3.40
2018-11-03T22:39:33.633Z,2.77
2018-11-03T22:42:02.673Z,3.47
2018-11-03T22:44:31.532Z,3.30
2018-11-03T22:47:00.677Z,3.77
2018-11-03T22:49:29.545Z,4.00
2018-11-03T22:51:58.530Z,3.23
2018-11-03T22:54:27.500Z,3.60
2018-11-03T22:56:56.361Z,3.30
2018-11-03T22:59:25.196Z,3.00
2018-11-03T23:01:53.944Z,3.77
2018-11-03T23:04:22.766Z,3.67
2018-11-03T23:06:51.550Z,3.07
2018-11-03T23:09:20.566Z,3.33
2018-11-03T23:11:49.590Z,3.27
2018-11-03T23:14:19.336Z,3.43
2018-11-03T23:16:48.550Z,3.17
2018-11-03T23:19:17.733Z,3.90
2018-11-03T23:21:46.935Z,3.20
2018-11-03T23:24:15.647Z,3.60
2018-11-03T23:26:45.607Z,3.03
2018-11-03T23:29:14.746Z,2.93
2018-11-03T23:31:43.765Z,3.20
2018-11-03T23:34:13.404Z,3.60
2018-11-03T23:36:43.582Z,3.20
2018-11-03T23:39:13.025Z,3.33
2018-11-03T23:41:41.851Z,2.67
2018-11-03T23:44:11.179Z,2.50
2018-11-03T23:46:40.031Z,2.30
2018-11-03T23:49:09.439Z,2.27
2018-11-03T23:51:38.483Z,2.67
2018-11-03T23:54:07.671Z,4.53
2018-11-03T23:56:36.424Z,3.93
2018-11-03T23:59:05.887Z,3.53
